createdAt,value
2023-04-23T00:01:45.370Z,31.23
2023-04-23T00:04:12.257Z,29.88
2023-04-23T00:06:39.880Z,34.13
2023-04-23T00:09:07.244Z,32.00
2023-04-23T00:11:34.154Z,30.42
2023-04-23T00:14:00.984Z,35.10
2023-04-23T00:16:27.908Z,33.85
2023-04-23T00:18:54.470Z,32.63
2023-04-23T00:21:21.270Z,35.63
2023-04-23T00:23:47.851Z,36.17
2023-04-23T00:26:14.389Z,33.78
2023-04-23T00:28:40.888Z,40.78
2023-04-23T00:31:07.604Z,33.75
2023-04-23T00:33:34.211Z,39.38
2023-04-23T00:36:01.118Z,34.72
2023-04-23T00:38:27.776Z,37.60
2023-04-23T00:40:54.660Z,31.55
2023-04-23T00:43:21.418Z,36.20
2023-04-23T00:45:48.329Z,38.63
2023-04-23T00:48:16.340Z,39.08
2023-04-23T00:50:43.221Z,39.45
2023-04-23T00:53:09.893Z,39.17
2023-04-23T00:55:36.718Z,38.30
2023-04-23T00:58:03.898Z,37.08
2023-04-23T01:00:30.615Z,37.97
2023-04-23T01:05:25.782Z,37.35
2023-04-23T01:07:52.570Z,37.05
2023-04-23T01:10:19.366Z,35.05
2023-04-23T01:12:48.327Z,39.33
2023-04-23T01:15:15.006Z,35.65
2023-04-23T01:17:43.158Z,36.83
2023-04-23T01:20:10.276Z,38.70
2023-04-23T01:22:37.830Z,39.13
2023-04-23T01:25:05.637Z,38.60
2023-04-23T01:27:33.165Z,44.50
2023-04-23T01:30:03.587Z,43.80
2023-04-23T01:32:31.639Z,38.35
2023-04-23T01:34:58.601Z,39.28
2023-04-23T01:37:26.175Z,42.00
2023-04-23T01:39:53.047Z,42.03
2023-04-23T01:42:19.779Z,37.53
2023-04-23T01:44:46.560Z,37.58
2023-04-23T01:47:13.585Z,37.22
2023-04-23T01:49:40.639Z,36.00
2023-04-23T01:52:07.440Z,44.03
2023-04-23T01:54:34.026Z,39.25
2023-04-23T01:57:00.854Z,48.13
2023-04-23T01:59:27.418Z,36.13
2023-04-23T02:01:54.073Z,34.03
2023-04-23T02:04:20.911Z,42.45
2023-04-23T02:06:49.878Z,46.78
2023-04-23T02:09:16.612Z,37.22
2023-04-23T02:11:43.255Z,37.83
2023-04-23T02:14:10.402Z,39.95
2023-04-23T02:16:37.467Z,36.40
2023-04-23T02:19:04.387Z,41.83
2023-04-23T02:21:31.595Z,34.83
2023-04-23T02:23:58.191Z,40.65
2023-04-23T02:26:25.037Z,42.10
2023-04-23T02:28:51.848Z,39.97
2023-04-23T02:31:20.492Z,38.40
2023-04-23T02:33:47.319Z,37.03
2023-04-23T02:36:14.023Z,40.75
2023-04-23T02:38:42.326Z,33.08
2023-04-23T02:41:09.196Z,43.33
2023-04-23T02:43:35.835Z,42.08
2023-04-23T02:46:08.528Z,43.85
2023-04-23T02:48:41.436Z,37.03
2023-04-23T02:51:11.253Z,37.25
2023-04-23T02:53:37.941Z,33.53
2023-04-23T02:56:04.663Z,36.85
2023-04-23T02:58:31.853Z,39.30
2023-04-23T03:01:00.999Z,38.45
2023-04-23T03:03:31.851Z,38.63
2023-04-23T03:06:01.484Z,36.58
2023-04-23T03:08:28.403Z,43.58
2023-04-23T03:10:55.207Z,40.88
2023-04-23T03:13:21.897Z,38.25
2023-04-23T03:15:49.598Z,40.95
2023-04-23T03:18:16.299Z,36.40
2023-04-23T03:20:44.701Z,36.80
2023-04-23T03:23:11.347Z,33.58
2023-04-23T03:25:37.918Z,30.55
2023-04-23T03:28:05.083Z,36.50
2023-04-23T03:30:31.949Z,32.15
2023-04-23T03:32:59.077Z,37.03
2023-04-23T03:35:26.335Z,37.35
2023-04-23T03:37:55.096Z,36.78
2023-04-23T03:40:23.176Z,30.30
2023-04-23T03:42:53.041Z,30.48
2023-04-23T03:45:26.559Z,32.30
2023-04-23T03:47:53.172Z,29.42
2023-04-23T03:50:19.852Z,32.03
2023-04-23T03:52:55.533Z,29.95
2023-04-23T03:55:42.037Z,31.30
2023-04-23T03:58:09.151Z,29.42
2023-04-23T04:00:42.931Z,27.73
2023-04-23T04:03:09.828Z,31.42
2023-04-23T04:05:36.596Z,30.88
2023-04-23T04:08:04.922Z,25.58
2023-04-23T04:10:31.489Z,33.20
2023-04-23T04:12:58.026Z,31.60
2023-04-23T04:15:24.791Z,28.02
2023-04-23T04:17:51.380Z,29.92
2023-04-23T04:20:18.043Z,26.27
2023-04-23T04:22:44.610Z,24.23
2023-04-23T04:25:12.153Z,30.08
2023-04-23T04:27:39.052Z,22.40
2023-04-23T04:30:06.692Z,26.00
2023-04-23T04:32:33.259Z,27.10
2023-04-23T04:34:59.924Z,25.23
2023-04-23T04:37:26.457Z,27.70
2023-04-23T04:39:54.426Z,32.28
2023-04-23T04:42:21.043Z,23.73
2023-04-23T04:44:47.705Z,22.08
2023-04-23T04:47:16.186Z,25.15
2023-04-23T04:49:42.776Z,25.60
2023-04-23T04:52:09.298Z,25.42
2023-04-23T04:54:35.937Z,23.42
2023-04-23T04:57:02.524Z,24.23
2023-04-23T04:59:29.153Z,24.27
2023-04-23T05:01:56.538Z,26.45
2023-04-23T05:04:23.190Z,24.23
2023-04-23T05:06:49.716Z,22.83
2023-04-23T05:09:17.092Z,23.20
2023-04-23T05:11:43.710Z,27.15
2023-04-23T05:14:10.710Z,22.88
2023-04-23T05:16:37.418Z,20.58
2023-04-23T05:19:04.008Z,22.42
2023-04-23T05:21:31.515Z,20.83
2023-04-23T05:23:58.137Z,21.80
2023-04-23T05:26:24.659Z,20.55
2023-04-23T05:28:51.248Z,22.40
2023-04-23T05:31:17.940Z,21.83
2023-04-23T05:33:50.484Z,24.27
2023-04-23T05:36:18.089Z,22.88
2023-04-23T05:38:44.880Z,20.60
2023-04-23T05:41:11.570Z,19.83
2023-04-23T05:43:38.118Z,20.98
2023-04-23T05:46:07.010Z,18.05
2023-04-23T05:48:34.031Z,21.20
2023-04-23T05:51:00.879Z,18.13
2023-04-23T05:53:28.090Z,19.17
2023-04-23T05:55:54.683Z,19.20
2023-04-23T05:58:21.261Z,18.15
2023-04-23T06:00:47.933Z,17.15
2023-04-23T06:03:14.804Z,16.88
2023-04-23T06:05:43.222Z,17.92
2023-04-23T06:08:09.842Z,14.27
2023-04-23T06:10:36.466Z,17.30
2023-04-23T06:13:03.123Z,20.40
2023-04-23T06:15:29.684Z,14.30
2023-04-23T06:17:56.412Z,17.00
2023-04-23T06:20:23.072Z,13.60
2023-04-23T06:22:49.609Z,17.10
2023-04-23T06:25:16.259Z,15.10
2023-04-23T06:27:42.899Z,16.70
2023-04-23T06:30:16.768Z,13.70
2023-04-23T06:32:44.375Z,13.98
2023-04-23T06:35:11.108Z,13.90
2023-04-23T06:37:37.685Z,14.98
2023-04-23T06:40:04.630Z,14.95
2023-04-23T06:42:31.182Z,13.35
2023-04-23T06:45:16.813Z,15.52
2023-04-23T06:47:43.375Z,17.52
2023-04-23T06:50:10.089Z,13.45
2023-04-23T06:52:36.737Z,22.55
2023-04-23T06:55:03.653Z,13.75
2023-04-23T06:57:30.201Z,12.57
2023-04-23T06:59:56.868Z,11.57
2023-04-23T07:02:27.609Z,11.35
2023-04-23T07:04:54.151Z,11.43
2023-04-23T07:07:20.759Z,10.27
2023-04-23T07:09:47.338Z,11.05
2023-04-23T07:12:13.886Z,10.10
2023-04-23T07:14:40.720Z,10.77
2023-04-23T07:17:07.574Z,10.88
2023-04-23T07:19:34.192Z,10.98
2023-04-23T07:22:00.820Z,9.63
2023-04-23T07:24:27.417Z,17.50
2023-04-23T07:26:54.241Z,11.82
2023-04-23T07:29:21.488Z,13.48
2023-04-23T07:31:48.271Z,11.80
2023-04-23T07:34:14.900Z,9.75
2023-04-23T07:36:41.510Z,7.20
2023-04-23T07:39:08.041Z,7.40
2023-04-23T07:41:35.256Z,7.65
2023-04-23T07:44:01.944Z,10.85
2023-04-23T07:46:28.740Z,11.65
2023-04-23T07:48:55.610Z,9.77
2023-04-23T07:51:22.663Z,11.43
2023-04-23T07:53:51.145Z,7.82
2023-04-23T07:56:17.780Z,10.77
2023-04-23T07:58:44.284Z,6.97
2023-04-23T08:01:10.899Z,7.53
2023-04-23T08:03:37.700Z,11.68
2023-04-23T08:06:04.797Z,6.03
2023-04-23T08:08:31.372Z,9.15
2023-04-23T08:10:58.598Z,6.13
2023-04-23T08:13:25.111Z,8.02
2023-04-23T08:15:52.087Z,7.43
2023-04-23T08:18:18.625Z,6.70
2023-04-23T08:20:45.452Z,6.03
2023-04-23T08:23:12.008Z,4.90
2023-04-23T08:25:38.628Z,6.70
2023-04-23T08:28:05.335Z,8.75
2023-04-23T08:30:32.103Z,5.45
2023-04-23T08:32:58.775Z,5.82
2023-04-23T08:35:25.483Z,7.07
2023-04-23T08:37:52.028Z,7.60
2023-04-23T08:40:18.858Z,10.95
2023-04-23T08:42:53.545Z,5.03
2023-04-23T08:45:20.290Z,5.50
2023-04-23T08:47:46.885Z,4.95
2023-04-23T08:50:18.486Z,4.60
2023-04-23T08:52:55.852Z,3.95
2023-04-23T08:55:23.768Z,5.45
2023-04-23T08:57:50.862Z,5.75
2023-04-23T09:00:20.482Z,10.60
2023-04-23T09:02:48.730Z,4.05
2023-04-23T09:05:15.644Z,5.85
2023-04-23T09:07:42.982Z,4.63
2023-04-23T09:10:11.570Z,6.45
2023-04-23T09:12:40.886Z,5.43
2023-04-23T09:15:11.138Z,4.93
2023-04-23T09:17:44.178Z,12.25
2023-04-23T09:20:12.099Z,4.82
2023-04-23T09:22:38.802Z,5.35
2023-04-23T09:25:07.709Z,5.07
2023-04-23T09:27:34.601Z,7.40
2023-04-23T09:30:04.854Z,7.13
2023-04-23T09:32:35.687Z,5.25
2023-04-23T09:35:04.485Z,3.88
2023-04-23T09:37:32.152Z,4.45
2023-04-23T09:40:00.413Z,3.88
2023-04-23T09:42:28.296Z,4.93
2023-04-23T09:45:01.119Z,6.95
2023-04-23T09:47:27.760Z,2.83
2023-04-23T09:49:54.438Z,5.68
2023-04-23T09:52:22.570Z,12.52
2023-04-23T09:54:49.194Z,12.23
2023-04-23T09:57:16.046Z,4.07
2023-04-23T09:59:48.882Z,7.82
2023-04-23T10:02:18.904Z,7.20
2023-04-23T10:04:51.916Z,4.15
2023-04-23T10:07:20.447Z,10.52
2023-04-23T10:09:47.989Z,4.05
2023-04-23T10:14:46.520Z,15.20
2023-04-23T10:17:13.730Z,6.45
2023-04-23T10:19:43.475Z,6.40
2023-04-23T10:24:48.581Z,3.72
2023-04-23T10:27:32.856Z,3.58
2023-04-23T10:30:06.437Z,9.82
2023-04-23T10:32:34.080Z,7.07
2023-04-23T10:35:00.908Z,3.13
2023-04-23T10:37:28.939Z,4.03
2023-04-23T10:39:59.312Z,3.78
2023-04-23T10:42:26.747Z,1.92
2023-04-23T10:45:02.723Z,8.40
2023-04-23T10:47:33.967Z,3.60
2023-04-23T10:50:18.978Z,6.68
2023-04-23T10:52:48.783Z,2.45
2023-04-23T10:55:23.895Z,3.63
2023-04-23T10:58:08.208Z,1.83
2023-04-23T11:00:41.201Z,4.53
2023-04-23T11:03:43.413Z,3.13
2023-04-23T11:06:15.808Z,2.95
2023-04-23T11:08:53.588Z,2.88
2023-04-23T11:11:38.311Z,4.75
2023-04-23T11:14:14.168Z,3.00
2023-04-23T11:16:41.002Z,2.03
2023-04-23T11:19:17.288Z,6.57
2023-04-23T11:21:58.885Z,2.00
2023-04-23T11:24:36.528Z,4.63
2023-04-23T11:27:08.661Z,3.83
2023-04-23T11:29:37.117Z,3.70
2023-04-23T11:32:05.437Z,1.67
2023-04-23T11:34:32.991Z,3.40
2023-04-23T11:37:00.673Z,9.35
2023-04-23T11:39:27.443Z,3.58
2023-04-23T11:41:54.840Z,3.58
2023-04-23T11:44:21.927Z,1.50
2023-04-23T11:46:50.718Z,3.13
2023-04-23T11:49:18.704Z,3.70
2023-04-23T11:51:46.239Z,6.93
2023-04-23T11:54:13.677Z,2.15
2023-04-23T11:56:41.576Z,1.90
2023-04-23T11:59:08.602Z,4.30
2023-04-23T12:01:47.353Z,2.20
2023-04-23T12:04:24.815Z,4.38
2023-04-23T12:06:53.543Z,8.13
2023-04-23T12:09:24.785Z,4.15
2023-04-23T12:11:52.008Z,1.20
2023-04-23T12:14:26.838Z,5.57
2023-04-23T12:16:53.816Z,2.58
2023-04-23T12:19:31.341Z,3.20
2023-04-23T12:22:03.538Z,1.77
2023-04-23T12:24:44.588Z,2.92
2023-04-23T12:27:15.702Z,4.18
2023-04-23T12:29:42.847Z,2.55
2023-04-23T12:32:11.302Z,1.98
2023-04-23T12:34:37.914Z,4.10
2023-04-23T12:37:07.115Z,4.18
2023-04-23T12:39:34.944Z,2.45
2023-04-23T12:42:04.933Z,2.38
2023-04-23T12:44:35.788Z,7.70
2023-04-23T12:47:07.490Z,2.80
2023-04-23T12:49:36.422Z,3.40
2023-04-23T12:52:04.568Z,4.85
2023-04-23T12:54:33.553Z,3.70
2023-04-23T12:57:03.717Z,4.35
2023-04-23T12:59:31.524Z,3.40
2023-04-23T13:02:02.039Z,4.00
2023-04-23T13:04:29.861Z,2.28
2023-04-23T13:06:56.993Z,2.45
2023-04-23T13:09:26.873Z,6.90
2023-04-23T13:11:54.287Z,2.95
2023-04-23T13:14:21.523Z,4.88
2023-04-23T13:16:48.958Z,2.35
2023-04-23T13:19:17.205Z,3.08
2023-04-23T13:21:44.697Z,3.42
2023-04-23T13:24:11.304Z,1.08
2023-04-23T13:26:38.139Z,2.88
2023-04-23T13:29:04.946Z,2.22
2023-04-23T13:31:31.689Z,4.63
2023-04-23T13:33:58.729Z,2.25
2023-04-23T13:36:25.939Z,3.33
2023-04-23T13:38:52.783Z,4.25
2023-04-23T13:41:19.369Z,3.10
2023-04-23T13:43:46.194Z,3.90
2023-04-23T13:46:14.102Z,4.47
2023-04-23T13:48:41.468Z,1.52
2023-04-23T13:51:17.917Z,3.33
2023-04-23T13:53:54.569Z,4.75
2023-04-23T13:56:21.085Z,4.35
2023-04-23T13:58:48.805Z,0.80
2023-04-23T14:01:15.676Z,3.75
2023-04-23T14:03:42.428Z,2.75
2023-04-23T14:06:09.060Z,1.48
2023-04-23T14:08:36.726Z,2.33
2023-04-23T14:11:04.427Z,5.45
2023-04-23T14:13:32.099Z,3.30
2023-04-23T14:16:00.107Z,8.43
2023-04-23T14:18:28.777Z,2.28
2023-04-23T14:20:55.375Z,2.65
2023-04-23T14:23:21.843Z,6.63
2023-04-23T14:25:53.117Z,1.42
2023-04-23T14:28:34.516Z,0.90
2023-04-23T14:31:02.075Z,3.63
2023-04-23T14:33:28.653Z,2.30
2023-04-23T14:35:55.427Z,3.95
2023-04-23T14:38:22.056Z,2.40
2023-04-23T14:40:48.653Z,1.33
2023-04-23T14:43:16.278Z,1.75
2023-04-23T14:45:43.322Z,2.38
2023-04-23T14:48:10.445Z,0.98
2023-04-23T14:50:36.998Z,1.27
2023-04-23T14:53:06.928Z,2.00
2023-04-23T14:55:33.985Z,0.90
2023-04-23T14:58:00.717Z,3.53
2023-04-23T15:00:27.825Z,5.90
2023-04-23T15:02:54.726Z,1.30
2023-04-23T15:05:21.630Z,2.75
2023-04-23T15:07:48.265Z,1.02
2023-04-23T15:10:15.044Z,2.95
2023-04-23T15:12:41.652Z,8.00
2023-04-23T15:15:27.720Z,1.85
2023-04-23T15:18:00.394Z,4.10
2023-04-23T15:20:27.078Z,2.33
2023-04-23T15:22:53.644Z,3.20
2023-04-23T15:25:20.223Z,1.88
2023-04-23T15:27:46.829Z,3.15
2023-04-23T15:30:13.532Z,1.67
2023-04-23T15:32:40.160Z,6.55
2023-04-23T15:35:07.153Z,7.45
2023-04-23T15:37:33.701Z,7.40
2023-04-23T15:40:00.286Z,1.15
2023-04-23T15:42:26.901Z,1.88
2023-04-23T15:44:56.223Z,0.73
2023-04-23T15:47:23.248Z,1.98
2023-04-23T15:49:50.333Z,2.22
2023-04-23T15:52:17.938Z,3.38
2023-04-23T15:54:45.436Z,0.82
2023-04-23T15:57:12.163Z,1.80
2023-04-23T15:59:39.081Z,3.25
2023-04-23T16:02:06.183Z,5.57
2023-04-23T16:04:33.180Z,3.40
2023-04-23T16:07:00.054Z,2.22
2023-04-23T16:09:26.613Z,2.25
2023-04-23T16:11:54.486Z,1.15
2023-04-23T16:14:21.070Z,1.10
2023-04-23T16:16:48.048Z,2.45
2023-04-23T16:19:14.651Z,8.00
2023-04-23T16:21:41.377Z,2.78
2023-04-23T16:24:07.967Z,1.48
2023-04-23T16:26:34.791Z,0.90
2023-04-23T16:31:31.082Z,0.80
2023-04-23T16:33:57.682Z,1.45
2023-04-23T16:36:24.549Z,1.52
2023-04-23T16:38:51.308Z,1.58
2023-04-23T16:41:19.642Z,1.50
2023-04-23T16:43:49.618Z,3.90
2023-04-23T16:46:16.418Z,2.17
2023-04-23T16:48:44.904Z,3.47
2023-04-23T16:51:12.058Z,5.65
2023-04-23T16:53:38.944Z,2.17
2023-04-23T16:56:05.965Z,2.60
2023-04-23T16:58:32.920Z,2.13
2023-04-23T17:00:59.482Z,2.75
2023-04-23T17:03:26.806Z,4.85
2023-04-23T17:06:09.343Z,2.33
2023-04-23T17:08:39.320Z,1.83
2023-04-23T17:11:06.913Z,1.80
2023-04-23T17:13:34.693Z,4.07
2023-04-23T17:16:02.273Z,3.15
2023-04-23T17:18:29.050Z,3.00
2023-04-23T17:20:55.750Z,2.13
2023-04-23T17:23:22.333Z,2.33
2023-04-23T17:25:49.278Z,5.32
2023-04-23T17:28:18.435Z,6.72
2023-04-23T17:30:45.876Z,1.83
2023-04-23T17:33:12.783Z,7.25
2023-04-23T17:35:40.168Z,5.55
2023-04-23T17:38:07.224Z,2.05
2023-04-23T17:40:33.863Z,4.07
2023-04-23T17:43:00.504Z,3.28
2023-04-23T17:45:27.195Z,5.43
2023-04-23T17:47:53.920Z,3.42
2023-04-23T17:50:21.299Z,5.28
2023-04-23T17:52:47.988Z,3.10
2023-04-23T17:55:14.688Z,5.47
2023-04-23T17:57:41.326Z,4.07
2023-04-23T18:00:12.146Z,1.92
2023-04-23T18:02:42.255Z,0.65
2023-04-23T18:05:10.284Z,0.10
2023-04-23T18:07:38.264Z,0.10
2023-04-23T18:10:05.778Z,0.45
2023-04-23T18:12:32.876Z,0.20
2023-04-23T18:14:59.526Z,0.17
2023-04-23T18:17:26.375Z,0.25
2023-04-23T18:19:54.126Z,0.20
2023-04-23T18:22:24.508Z,0.10
2023-04-23T18:24:51.237Z,1.48
2023-04-23T18:27:17.835Z,0.25
2023-04-23T18:29:45.248Z,0.10
2023-04-23T18:32:20.992Z,0.20
2023-04-23T18:34:50.857Z,0.20
2023-04-23T18:37:37.778Z,0.30
2023-04-23T18:40:06.091Z,0.10
2023-04-23T18:42:33.163Z,0.68
2023-04-23T18:44:59.849Z,0.25
2023-04-23T18:47:31.939Z,0.20
2023-04-23T18:50:03.227Z,0.10
2023-04-23T18:52:29.913Z,0.10
2023-04-23T18:54:56.483Z,0.10
2023-04-23T18:57:23.099Z,0.20
2023-04-23T18:59:49.683Z,0.17
2023-04-23T19:02:28.179Z,0.50
2023-04-23T19:05:00.814Z,0.10
2023-04-23T19:07:27.444Z,0.20
2023-04-23T19:09:53.973Z,0.10
2023-04-23T19:12:20.491Z,0.30
2023-04-23T19:14:47.056Z,0.10
2023-04-23T19:17:13.556Z,0.50
2023-04-23T19:19:40.364Z,0.30
2023-04-23T19:22:07.017Z,0.10
2023-04-23T19:24:34.380Z,0.22
2023-04-23T19:27:02.027Z,0.10
2023-04-23T19:29:28.555Z,0.20
2023-04-23T19:31:55.189Z,0.17
2023-04-23T19:34:21.793Z,0.15
2023-04-23T19:36:48.338Z,0.20
2023-04-23T19:39:14.903Z,0.20
2023-04-23T19:41:41.430Z,0.10
2023-04-23T19:44:07.953Z,0.20
2023-04-23T19:46:34.534Z,0.13
2023-04-23T19:49:01.109Z,0.10
2023-04-23T19:51:32.726Z,0.20
2023-04-23T19:53:59.285Z,0.20
2023-04-23T19:56:25.862Z,0.20
2023-04-23T19:58:52.575Z,0.10
2023-04-23T20:01:19.263Z,0.32
2023-04-23T20:03:47.916Z,0.10
2023-04-23T20:06:14.692Z,0.20
2023-04-23T20:09:00.026Z,0.20
2023-04-23T20:11:26.760Z,0.10
2023-04-23T20:13:53.947Z,0.10
2023-04-23T20:16:21.424Z,0.20
2023-04-23T20:18:48.259Z,0.20
2023-04-23T20:21:14.837Z,0.20
2023-04-23T20:23:41.397Z,0.10
2023-04-23T20:26:07.970Z,0.20
2023-04-23T20:28:34.552Z,0.10
2023-04-23T20:31:01.088Z,0.10
2023-04-23T20:33:27.725Z,0.20
2023-04-23T20:35:54.284Z,0.20
2023-04-23T20:38:20.789Z,0.17
2023-04-23T20:40:47.654Z,0.10
2023-04-23T20:43:14.385Z,0.30
2023-04-23T20:45:41.373Z,0.20
2023-04-23T20:48:08.318Z,0.10
2023-04-23T20:50:34.952Z,0.13
2023-04-23T20:53:01.525Z,0.20
2023-04-23T20:55:28.196Z,0.10
2023-04-23T20:57:54.848Z,0.20
2023-04-23T21:00:22.283Z,0.10
2023-04-23T21:02:48.908Z,0.15
2023-04-23T21:05:15.827Z,0.20
2023-04-23T21:07:43.180Z,0.20
2023-04-23T21:10:10.582Z,0.20
2023-04-23T21:12:37.476Z,0.20
2023-04-23T21:15:04.570Z,0.20
2023-04-23T21:17:31.118Z,0.20
2023-04-23T21:19:57.708Z,0.20
2023-04-23T21:22:24.246Z,0.20
2023-04-23T21:24:50.866Z,0.10
2023-04-23T21:27:21.538Z,0.20
2023-04-23T21:29:48.588Z,0.17
2023-04-23T21:32:15.815Z,0.20
2023-04-23T21:34:42.535Z,0.20
2023-04-23T21:37:09.160Z,0.20
2023-04-23T21:39:35.757Z,0.20
2023-04-23T21:42:02.315Z,0.10
2023-04-23T21:44:31.032Z,0.20
2023-04-23T21:46:57.624Z,0.20
2023-04-23T21:49:24.237Z,0.20
2023-04-23T21:51:54.413Z,0.20
2023-04-23T21:54:21.568Z,0.20
2023-04-23T21:56:48.097Z,0.30
2023-04-23T21:59:14.775Z,0.10
2023-04-23T22:01:41.486Z,0.20
2023-04-23T22:04:08.554Z,0.20
2023-04-23T22:06:35.273Z,0.38
2023-04-23T22:09:01.977Z,0.30
2023-04-23T22:11:29.183Z,0.30
2023-04-23T22:13:55.733Z,0.25
2023-04-23T22:16:28.865Z,0.77
2023-04-23T22:18:59.010Z,0.30
2023-04-23T22:21:25.651Z,1.45
2023-04-23T22:23:52.329Z,1.13
2023-04-23T22:26:18.994Z,0.52
2023-04-23T22:28:45.672Z,0.52
2023-04-23T22:31:12.258Z,1.00
2023-04-23T22:33:39.331Z,2.17
2023-04-23T22:36:06.171Z,1.17
2023-04-23T22:38:32.905Z,1.40
2023-04-23T22:40:59.628Z,0.50
2023-04-23T22:43:26.183Z,3.55
2023-04-23T22:45:52.821Z,0.30
2023-04-23T22:48:19.420Z,4.22
2023-04-23T22:50:45.953Z,0.80
2023-04-23T22:53:12.484Z,0.50
2023-04-23T22:55:39.636Z,1.15
2023-04-23T22:58:06.173Z,0.60
2023-04-23T23:00:32.769Z,0.93
2023-04-23T23:02:59.355Z,2.10
2023-04-23T23:05:26.569Z,1.80
2023-04-23T23:07:54.110Z,1.52
2023-04-23T23:10:22.729Z,1.13
2023-04-23T23:12:49.492Z,1.60
2023-04-23T23:15:16.219Z,1.52
2023-04-23T23:17:42.727Z,0.55
2023-04-23T23:20:09.933Z,3.55
2023-04-23T23:22:37.349Z,0.82
2023-04-23T23:25:06.430Z,0.75
2023-04-23T23:27:32.906Z,2.03
2023-04-23T23:29:59.562Z,0.70
2023-04-23T23:32:26.186Z,2.47
2023-04-23T23:34:52.796Z,0.98
2023-04-23T23:37:19.303Z,2.42
2023-04-23T23:39:45.885Z,2.80
2023-04-23T23:42:12.405Z,0.93
2023-04-23T23:44:39.042Z,0.60
2023-04-23T23:47:06.334Z,1.65
2023-04-23T23:49:32.976Z,0.57
2023-04-23T23:51:59.658Z,1.88
2023-04-23T23:54:26.217Z,0.70
2023-04-23T23:56:52.711Z,0.85
2023-04-23T23:59:19.332Z,0.40
